Time;durP1;ratioP1;P1;durP2;ratioP2;P2;SDS_P1;SDS_P2;PMS_P1;PMS_P2;Temp;Humidity;BMP_temperature;BMP_pressure;BME280_temperature;BME280_humidity;BME280_pressure;Samples;Min_cycle;Max_cycle;Signal;HPM_P1;HPM_P2
2020/12/04 00:02:28;;;;;;;0.00;0.00;;;;;;;;;;4937443;28;20045;-64
2020/12/04 00:04:56;;;;;;;3.20;0.90;;;;;;;;;;4936540;28;20049;-63
2020/12/04 00:07:24;;;;;;;0.00;0.00;;;;;;;;;;4942145;28;21027;-62
2020/12/04 00:10:02;;;;;;;0.22;0.22;;;;;;;;;;4939318;28;20085;-64
2020/12/04 00:12:30;;;;;;;2.38;0.60;;;;;;;;;;4938941;28;20066;-61
2020/12/04 00:14:58;;;;;;;0.05;0.05;;;;;;;;;;4950408;28;20046;-64
2020/12/04 00:17:26;;;;;;;0.00;0.00;;;;;;;;;;4943297;28;20043;-64
2020/12/04 00:19:54;;;;;;;0.85;0.85;;;;;;;;;;4942090;28;20075;-63
2020/12/04 00:22:22;;;;;;;0.30;0.30;;;;;;;;;;4937239;28;21089;-64
2020/12/04 00:24:49;;;;;;;0.00;0.00;;;;;;;;;;4942140;28;20042;-62
2020/12/04 00:27:18;;;;;;;0.00;0.00;;;;;;;;;;4946671;28;20027;-62
2020/12/04 00:29:46;;;;;;;0.10;0.10;;;;;;;;;;4941515;28;20122;-62
2020/12/04 00:32:14;;;;;;;0.30;0.30;;;;;;;;;;4941290;28;20026;-64
2020/12/04 00:34:40;;;;;;;0.05;0.05;;;;;;;;;;4926649;28;20402;-64
2020/12/04 00:37:06;;;;;;;0.00;0.00;;;;;;;;;;4941188;28;20031;-63
2020/12/04 00:39:32;;;;;;;0.20;0.20;;;;;;;;;;4943088;28;20858;-64
2020/12/04 00:42:00;;;;;;;0.00;0.00;;;;;;;;;;4957146;28;20042;-63
2020/12/04 00:44:31;;;;;;;0.00;0.00;;;;;;;;;;4942536;28;20035;-63
2020/12/04 00:47:00;;;;;;;0.35;0.35;;;;;;;;;;4942813;28;20030;-64
2020/12/04 00:49:26;;;;;;;0.00;0.00;;;;;;;;;;4941001;28;20070;-63
2020/12/04 00:52:01;;;;;;;2.85;1.00;;;;;;;;;;4941636;28;20055;-70
2020/12/04 00:54:26;;;;;;;0.15;0.15;;;;;;;;;;4942727;28;20126;-64
2020/12/04 00:56:54;;;;;;;1.23;0.50;;;;;;;;;;4944975;28;21854;-63
2020/12/04 00:59:20;;;;;;;0.08;0.08;;;;;;;;;;4941719;28;20035;-63
2020/12/04 01:01:48;;;;;;;0.32;0.32;;;;;;;;;;4940660;28;20406;-63
2020/12/04 01:04:19;;;;;;;0.43;0.32;;;;;;;;;;4939592;28;20039;-66
2020/12/04 01:06:46;;;;;;;0.43;0.43;;;;;;;;;;4941135;28;20282;-65
2020/12/04 01:09:14;;;;;;;0.00;0.00;;;;;;;;;;4929915;28;20431;-66
2020/12/04 01:11:40;;;;;;;0.00;0.00;;;;;;;;;;4940920;28;20657;-66
2020/12/04 01:14:10;;;;;;;0.00;0.00;;;;;;;;;;4942185;28;20035;-65
2020/12/04 01:16:35;;;;;;;0.00;0.00;;;;;;;;;;4925119;28;20356;-65
2020/12/04 01:19:03;;;;;;;0.10;0.10;;;;;;;;;;4940809;28;20065;-64
2020/12/04 01:21:32;;;;;;;0.65;0.65;;;;;;;;;;4940522;28;20184;-63
2020/12/04 01:24:02;;;;;;;1.13;0.63;;;;;;;;;;4941951;28;20054;-63
2020/12/04 01:26:27;;;;;;;0.00;0.00;;;;;;;;;;4941119;28;20432;-66
2020/12/04 01:28:58;;;;;;;0.00;0.00;;;;;;;;;;4941769;28;20053;-62
2020/12/04 01:31:24;;;;;;;0.55;0.55;;;;;;;;;;4956179;28;20146;-63
2020/12/04 01:33:53;;;;;;;0.00;0.00;;;;;;;;;;4946189;28;20055;-65
2020/12/04 01:36:18;;;;;;;0.50;0.50;;;;;;;;;;4931513;28;20566;-66
2020/12/04 01:38:49;;;;;;;0.03;0.03;;;;;;;;;;4941836;28;20078;-63
2020/12/04 01:41:17;;;;;;;0.00;0.00;;;;;;;;;;4929374;28;20158;-64
2020/12/04 01:43:45;;;;;;;0.00;0.00;;;;;;;;;;4944588;28;21455;-67
2020/12/04 01:46:11;;;;;;;0.00;0.00;;;;;;;;;;4941314;28;20043;-65
2020/12/04 01:48:38;;;;;;;0.00;0.00;;;;;;;;;;4941240;28;20073;-64
2020/12/04 01:51:09;;;;;;;0.00;0.00;;;;;;;;;;4938671;28;20077;-66
2020/12/04 01:53:35;;;;;;;0.00;0.00;;;;;;;;;;4929548;28;20041;-63
2020/12/04 01:56:01;;;;;;;0.00;0.00;;;;;;;;;;4946714;28;20034;-64
2020/12/04 01:58:27;;;;;;;0.55;0.55;;;;;;;;;;4940974;28;20034;-65
2020/12/04 02:00:58;;;;;;;0.17;0.17;;;;;;;;;;4941758;28;20030;-64
2020/12/04 02:03:23;;;;;;;0.10;0.10;;;;;;;;;;4941583;28;20035;-67
2020/12/04 02:05:56;;;;;;;1.10;0.75;;;;;;;;;;4936913;28;21497;-66
2020/12/04 02:08:33;;;;;;;0.10;0.10;;;;;;;;;;4941539;28;20455;-64
2020/12/04 02:11:19;;;;;;;0.00;0.00;;;;;;;;;;4940439;28;20251;-65
2020/12/04 02:13:47;;;;;;;0.00;0.00;;;;;;;;;;4937472;28;20100;-64
2020/12/04 02:16:17;;;;;;;0.00;0.00;;;;;;;;;;4937969;28;20395;-65
2020/12/04 02:18:45;;;;;;;0.00;0.00;;;;;;;;;;4954429;28;20038;-65
2020/12/04 02:21:13;;;;;;;0.32;0.32;;;;;;;;;;4938701;28;20112;-67
2020/12/04 02:23:43;;;;;;;0.00;0.00;;;;;;;;;;4941611;28;20037;-65
2020/12/04 02:26:12;;;;;;;0.00;0.00;;;;;;;;;;4944686;28;20042;-65
2020/12/04 02:28:37;;;;;;;1.23;0.75;;;;;;;;;;4941059;28;20221;-68
2020/12/04 02:31:10;;;;;;;0.00;0.00;;;;;;;;;;4940418;28;20035;-65
2020/12/04 02:33:35;;;;;;;0.00;0.00;;;;;;;;;;4926873;28;20688;-65
2020/12/04 02:36:04;;;;;;;0.00;0.00;;;;;;;;;;4938538;28;20058;-64
2020/12/04 02:38:30;;;;;;;0.00;0.00;;;;;;;;;;4940585;28;20060;-65
2020/12/04 02:40:56;;;;;;;0.13;0.13;;;;;;;;;;4939646;28;20137;-65
2020/12/04 02:43:22;;;;;;;0.10;0.10;;;;;;;;;;4954201;28;20042;-66
2020/12/04 02:45:48;;;;;;;4.03;1.40;;;;;;;;;;4944273;28;20123;-65
2020/12/04 02:48:16;;;;;;;0.35;0.35;;;;;;;;;;4952943;28;20022;-65
2020/12/04 02:50:41;;;;;;;0.00;0.00;;;;;;;;;;4943520;28;21608;-65
2020/12/04 02:53:07;;;;;;;0.22;0.22;;;;;;;;;;4940139;28;20034;-67
2020/12/04 02:55:33;;;;;;;1.23;0.43;;;;;;;;;;4938341;28;20039;-63
2020/12/04 02:58:01;;;;;;;0.00;0.00;;;;;;;;;;4944194;28;20930;-68
2020/12/04 03:00:31;;;;;;;0.00;0.00;;;;;;;;;;4938417;28;20037;-65
2020/12/04 03:02:56;;;;;;;0.00;0.00;;;;;;;;;;4938578;28;20081;-66
2020/12/04 03:05:24;;;;;;;0.22;0.22;;;;;;;;;;4939843;28;20113;-64
2020/12/04 03:07:50;;;;;;;0.10;0.10;;;;;;;;;;4941114;28;20037;-65
2020/12/04 03:10:18;;;;;;;2.22;1.65;;;;;;;;;;4939854;28;20035;-66
2020/12/04 03:12:46;;;;;;;0.00;0.00;;;;;;;;;;4939617;28;20039;-65
2020/12/04 03:15:14;;;;;;;0.00;0.00;;;;;;;;;;4940266;28;20031;-64
2020/12/04 03:17:41;;;;;;;0.00;0.00;;;;;;;;;;4938336;28;20185;-68
2020/12/04 03:20:11;;;;;;;0.00;0.00;;;;;;;;;;4939767;28;20273;-65
2020/12/04 03:22:37;;;;;;;0.00;0.00;;;;;;;;;;4942363;28;20087;-64
2020/12/04 03:25:05;;;;;;;0.10;0.10;;;;;;;;;;4939066;28;20038;-68
2020/12/04 03:27:33;;;;;;;0.43;0.43;;;;;;;;;;4939821;28;20031;-67
2020/12/04 03:29:59;;;;;;;0.85;0.85;;;;;;;;;;4938783;28;20078;-65
2020/12/04 03:32:26;;;;;;;0.00;0.00;;;;;;;;;;4939270;28;20030;-66
2020/12/04 03:34:52;;;;;;;0.50;0.50;;;;;;;;;;4938820;28;20077;-65
2020/12/04 03:37:21;;;;;;;0.00;0.00;;;;;;;;;;4937672;28;20744;-71
2020/12/04 03:39:49;;;;;;;0.00;0.00;;;;;;;;;;4938553;28;20089;-64
2020/12/04 03:42:42;;;;;;;0.10;0.10;;;;;;;;;;4937827;28;20540;-65
2020/12/04 03:45:08;;;;;;;0.15;0.15;;;;;;;;;;4941325;28;20050;-65
2020/12/04 03:47:38;;;;;;;0.10;0.10;;;;;;;;;;4938671;28;20501;-65
2020/12/04 03:50:06;;;;;;;3.10;1.27;;;;;;;;;;4938060;28;20043;-70
2020/12/04 03:52:34;;;;;;;0.00;0.00;;;;;;;;;;4938394;28;20070;-69
2020/12/04 03:55:02;;;;;;;0.00;0.00;;;;;;;;;;4937752;28;20049;-65
2020/12/04 03:57:28;;;;;;;0.10;0.10;;;;;;;;;;4940245;28;20034;-66
2020/12/04 03:59:53;;;;;;;0.00;0.00;;;;;;;;;;4937533;28;20042;-65
2020/12/04 04:02:20;;;;;;;0.63;0.63;;;;;;;;;;4942464;28;20658;-66
2020/12/04 04:04:45;;;;;;;0.70;0.70;;;;;;;;;;4952836;28;20072;-66
2020/12/04 04:07:10;;;;;;;0.08;0.08;;;;;;;;;;4936411;28;20502;-65
2020/12/04 04:09:36;;;;;;;0.95;0.95;;;;;;;;;;4937493;28;20102;-67
2020/12/04 04:12:04;;;;;;;0.00;0.00;;;;;;;;;;4938115;28;20030;-66
2020/12/04 04:14:41;;;;;;;0.08;0.08;;;;;;;;;;4943350;28;20173;-66
2020/12/04 04:17:09;;;;;;;0.20;0.20;;;;;;;;;;4938772;28;20041;-67
2020/12/04 04:19:39;;;;;;;0.32;0.32;;;;;;;;;;4938798;28;21690;-68
2020/12/04 04:22:09;;;;;;;0.00;0.00;;;;;;;;;;4925542;28;20628;-65
2020/12/04 04:24:37;;;;;;;0.47;0.47;;;;;;;;;;4921676;28;20043;-65
2020/12/04 04:27:06;;;;;;;0.00;0.00;;;;;;;;;;4936220;28;20109;-65
2020/12/04 04:29:33;;;;;;;0.40;0.25;;;;;;;;;;4925693;28;20673;-65
2020/12/04 04:32:01;;;;;;;1.70;1.23;;;;;;;;;;4938003;28;20079;-64
2020/12/04 04:34:29;;;;;;;0.63;0.63;;;;;;;;;;4936984;28;20390;-64
2020/12/04 04:36:57;;;;;;;0.00;0.00;;;;;;;;;;4931685;28;20043;-66
2020/12/04 04:39:23;;;;;;;1.33;1.27;;;;;;;;;;4942002;28;20440;-66
2020/12/04 04:42:00;;;;;;;0.10;0.10;;;;;;;;;;4935588;28;20039;-65
2020/12/04 04:44:30;;;;;;;0.13;0.13;;;;;;;;;;4938591;28;20058;-69
2020/12/04 04:47:02;;;;;;;0.15;0.15;;;;;;;;;;4937744;28;20168;-64
2020/12/04 04:49:35;;;;;;;0.43;0.43;;;;;;;;;;4938332;28;20026;-66
2020/12/04 04:52:01;;;;;;;0.08;0.08;;;;;;;;;;4937767;28;20062;-68
2020/12/04 04:54:30;;;;;;;0.13;0.13;;;;;;;;;;4952430;28;20058;-66
2020/12/04 04:56:55;;;;;;;0.60;0.60;;;;;;;;;;4937746;28;20037;-64
2020/12/04 04:59:24;;;;;;;0.22;0.22;;;;;;;;;;4936533;28;20027;-64
2020/12/04 05:01:54;;;;;;;0.10;0.10;;;;;;;;;;4931710;28;20066;-66
2020/12/04 05:04:22;;;;;;;0.00;0.00;;;;;;;;;;4951235;28;20269;-67
2020/12/04 05:06:52;;;;;;;1.63;0.77;;;;;;;;;;4936393;28;20039;-66
2020/12/04 05:09:25;;;;;;;3.67;3.33;;;;;;;;;;4935547;28;20126;-65
2020/12/04 05:11:59;;;;;;;0.00;0.00;;;;;;;;;;4939484;28;20035;-64
2020/12/04 05:14:27;;;;;;;0.03;0.03;;;;;;;;;;4942000;28;20390;-67
2020/12/04 05:16:53;;;;;;;0.35;0.35;;;;;;;;;;4947934;28;20119;-64
2020/12/04 05:19:29;;;;;;;0.10;0.10;;;;;;;;;;4939152;28;20054;-64
2020/12/04 05:21:55;;;;;;;2.08;0.80;;;;;;;;;;4938835;28;20035;-68
2020/12/04 05:24:26;;;;;;;0.93;0.93;;;;;;;;;;4940927;28;20075;-65
2020/12/04 05:26:52;;;;;;;1.20;1.17;;;;;;;;;;4943734;28;20050;-65
2020/12/04 05:29:19;;;;;;;0.47;0.47;;;;;;;;;;4938338;28;20047;-63
2020/12/04 05:31:47;;;;;;;0.00;0.00;;;;;;;;;;4945363;28;20077;-62
2020/12/04 05:34:23;;;;;;;0.00;0.00;;;;;;;;;;4939571;28;20592;-64
2020/12/04 05:36:50;;;;;;;0.00;0.00;;;;;;;;;;4940190;28;20042;-64
2020/12/04 05:39:21;;;;;;;0.00;0.00;;;;;;;;;;4944493;28;20049;-65
2020/12/04 05:41:49;;;;;;;0.30;0.30;;;;;;;;;;4941579;28;20866;-65
2020/12/04 05:44:19;;;;;;;0.00;0.00;;;;;;;;;;4929274;28;20077;-67
2020/12/04 05:46:54;;;;;;;0.00;0.00;;;;;;;;;;4943962;28;20030;-65
2020/12/04 05:49:22;;;;;;;0.17;0.17;;;;;;;;;;4940661;28;20034;-66
2020/12/04 05:51:51;;;;;;;0.03;0.03;;;;;;;;;;4926810;28;20035;-62
2020/12/04 05:54:19;;;;;;;0.43;0.43;;;;;;;;;;4940474;28;20451;-65
2020/12/04 05:56:52;;;;;;;0.00;0.00;;;;;;;;;;4928116;28;20043;-63
2020/12/04 05:59:20;;;;;;;0.03;0.03;;;;;;;;;;4954561;28;20372;-63
2020/12/04 06:01:48;;;;;;;0.00;0.00;;;;;;;;;;4936493;28;20275;-65
2020/12/04 06:04:19;;;;;;;0.00;0.00;;;;;;;;;;4940668;28;20062;-65
2020/12/04 06:06:45;;;;;;;0.10;0.10;;;;;;;;;;4937517;28;20042;-62
2020/12/04 06:09:11;;;;;;;2.13;0.65;;;;;;;;;;4937918;28;20915;-66
2020/12/04 06:11:41;;;;;;;1.33;0.30;;;;;;;;;;4940223;28;20522;-66
2020/12/04 06:14:21;;;;;;;0.22;0.22;;;;;;;;;;4954815;28;20039;-63
2020/12/04 06:17:02;;;;;;;0.00;0.00;;;;;;;;;;4939770;28;20077;-62
2020/12/04 06:19:28;;;;;;;0.00;0.00;;;;;;;;;;4939336;28;20038;-61
2020/12/04 06:22:01;;;;;;;0.00;0.00;;;;;;;;;;4939810;28;20042;-63
2020/12/04 06:24:27;;;;;;;0.00;0.00;;;;;;;;;;4938095;28;21898;-63
2020/12/04 06:26:53;;;;;;;0.00;0.00;;;;;;;;;;4918950;28;20333;-65
2020/12/04 06:29:20;;;;;;;0.10;0.10;;;;;;;;;;4954836;28;20131;-63
2020/12/04 06:31:46;;;;;;;0.00;0.00;;;;;;;;;;4927966;28;20038;-63
2020/12/04 06:34:21;;;;;;;0.03;0.03;;;;;;;;;;4917074;28;20039;-63
2020/12/04 06:36:47;;;;;;;0.00;0.00;;;;;;;;;;4939166;28;20035;-63
2020/12/04 06:39:31;;;;;;;0.00;0.00;;;;;;;;;;4938664;28;20177;-62
2020/12/04 06:41:59;;;;;;;0.00;0.00;;;;;;;;;;4939981;28;20863;-62
2020/12/04 06:44:25;;;;;;;0.00;0.00;;;;;;;;;;4940503;28;20041;-62
2020/12/04 06:46:53;;;;;;;0.00;0.00;;;;;;;;;;4939130;28;20794;-62
2020/12/04 06:52:04;;;;;;;0.00;0.00;;;;;;;;;;4939695;28;20118;-64
2020/12/04 06:54:35;;;;;;;0.00;0.00;;;;;;;;;;4939719;28;20027;-62
2020/12/04 06:57:03;;;;;;;0.00;0.00;;;;;;;;;;4938523;28;20782;-63
2020/12/04 06:59:35;;;;;;;0.00;0.00;;;;;;;;;;4939624;28;20123;-61
2020/12/04 07:02:01;;;;;;;0.00;0.00;;;;;;;;;;4938870;28;20401;-61
2020/12/04 07:04:27;;;;;;;0.00;0.00;;;;;;;;;;4938249;28;20030;-63
2020/12/04 07:07:00;;;;;;;0.00;0.00;;;;;;;;;;4952599;28;20039;-63
2020/12/04 07:09:27;;;;;;;;;;;;;;;;;;4945048;28;20027;-63
2020/12/04 07:11:58;;;;;;;0.20;0.20;;;;;;;;;;4937338;28;22115;-62
2020/12/04 07:14:27;;;;;;;0.03;0.03;;;;;;;;;;4940550;28;20484;-63
2020/12/04 07:16:54;;;;;;;0.00;0.00;;;;;;;;;;4938417;28;20158;-63
2020/12/04 07:19:22;;;;;;;0.00;0.00;;;;;;;;;;4937984;28;20169;-62
2020/12/04 07:21:50;;;;;;;0.00;0.00;;;;;;;;;;4939003;28;20498;-62
2020/12/04 07:24:18;;;;;;;0.00;0.00;;;;;;;;;;4953469;28;20672;-63
2020/12/04 07:26:51;;;;;;;0.13;0.13;;;;;;;;;;4939000;28;21742;-63
2020/12/04 07:29:17;;;;;;;0.00;0.00;;;;;;;;;;4939192;28;20046;-63
2020/12/04 07:31:51;;;;;;;0.57;0.45;;;;;;;;;;4939090;28;20043;-65
2020/12/04 07:34:21;;;;;;;0.30;0.30;;;;;;;;;;4938321;28;20034;-63
2020/12/04 07:36:50;;;;;;;0.00;0.00;;;;;;;;;;4936931;28;20498;-63
2020/12/04 07:39:31;;;;;;;0.82;0.82;;;;;;;;;;4938740;28;20627;-63
2020/12/04 07:41:57;;;;;;;0.10;0.10;;;;;;;;;;4940067;28;20042;-63
2020/12/04 07:44:27;;;;;;;1.50;0.73;;;;;;;;;;4938197;28;20049;-64
2020/12/04 07:46:58;;;;;;;0.00;0.00;;;;;;;;;;4939091;28;20031;-61
2020/12/04 07:49:23;;;;;;;0.00;0.00;;;;;;;;;;4952899;28;20738;-64
2020/12/04 07:51:54;;;;;;;0.00;0.00;;;;;;;;;;4927328;28;20034;-64
2020/12/04 07:54:21;;;;;;;0.00;0.00;;;;;;;;;;4928442;28;20065;-63
2020/12/04 07:56:55;;;;;;;0.00;0.00;;;;;;;;;;4937979;28;20707;-63
2020/12/04 07:59:45;;;;;;;0.00;0.00;;;;;;;;;;4937758;28;20352;-64
2020/12/04 08:02:20;;;;;;;0.13;0.13;;;;;;;;;;4938104;28;20502;-63
2020/12/04 08:04:46;;;;;;;0.60;0.60;;;;;;;;;;4939645;28;20485;-64
2020/12/04 08:07:12;;;;;;;0.90;0.88;;;;;;;;;;4937337;28;20150;-64
2020/12/04 08:09:41;;;;;;;5.47;1.45;;;;;;;;;;4939222;28;20114;-63
2020/12/04 08:12:14;;;;;;;0.00;0.00;;;;;;;;;;4933105;28;20537;-64
2020/12/04 08:14:41;;;;;;;0.00;0.00;;;;;;;;;;4936893;28;20697;-64
2020/12/04 08:17:08;;;;;;;0.00;0.00;;;;;;;;;;4936633;28;20030;-63
2020/12/04 08:19:37;;;;;;;0.15;0.15;;;;;;;;;;4938128;28;20051;-63
2020/12/04 08:22:07;;;;;;;0.00;0.00;;;;;;;;;;4936979;28;20031;-63
2020/12/04 08:24:33;;;;;;;1.98;1.10;;;;;;;;;;4938289;28;20502;-63
2020/12/04 08:27:12;;;;;;;0.00;0.00;;;;;;;;;;4946143;28;20498;-63
2020/12/04 08:29:41;;;;;;;0.00;0.00;;;;;;;;;;4935609;28;20059;-63
2020/12/04 08:32:13;;;;;;;0.00;0.00;;;;;;;;;;4938898;28;20038;-64
2020/12/04 08:34:42;;;;;;;0.00;0.00;;;;;;;;;;4938609;28;20035;-66
2020/12/04 08:37:11;;;;;;;0.00;0.00;;;;;;;;;;4936724;28;20541;-64
2020/12/04 08:39:40;;;;;;;0.15;0.15;;;;;;;;;;4952276;28;20061;-64
2020/12/04 08:42:31;;;;;;;0.95;0.75;;;;;;;;;;4938001;28;20027;-64
2020/12/04 08:45:05;;;;;;;0.25;0.25;;;;;;;;;;4934211;28;20034;-65
2020/12/04 08:47:32;;;;;;;1.33;0.35;;;;;;;;;;4947221;28;20046;-67
2020/12/04 08:50:02;;;;;;;0.00;0.00;;;;;;;;;;4946706;28;20121;-65
2020/12/04 08:52:34;;;;;;;0.20;0.20;;;;;;;;;;4942329;28;20122;-64
2020/12/04 08:55:07;;;;;;;0.00;0.00;;;;;;;;;;4942173;28;20027;-64
2020/12/04 08:57:38;;;;;;;0.00;0.00;;;;;;;;;;4941158;28;20092;-64
2020/12/04 09:00:05;;;;;;;0.65;0.65;;;;;;;;;;4956324;28;20053;-64
2020/12/04 09:02:30;;;;;;;3.00;1.00;;;;;;;;;;4942002;28;20115;-64
2020/12/04 09:04:58;;;;;;;0.00;0.00;;;;;;;;;;4945834;28;20031;-62
2020/12/04 09:07:26;;;;;;;0.10;0.10;;;;;;;;;;4945596;28;20454;-64
2020/12/04 09:09:51;;;;;;;2.55;0.95;;;;;;;;;;4945824;28;20022;-65
2020/12/04 09:12:16;;;;;;;0.00;0.00;;;;;;;;;;4940504;28;20418;-64
2020/12/04 09:14:43;;;;;;;0.00;0.00;;;;;;;;;;4939923;28;20483;-65
2020/12/04 09:17:13;;;;;;;0.05;0.05;;;;;;;;;;4955037;28;20038;-65
2020/12/04 09:19:38;;;;;;;0.20;0.20;;;;;;;;;;4941151;28;20031;-65
2020/12/04 09:22:06;;;;;;;1.00;0.73;;;;;;;;;;4941003;28;20086;-64
2020/12/04 09:24:34;;;;;;;0.00;0.00;;;;;;;;;;4940250;28;20099;-66
2020/12/04 09:27:02;;;;;;;0.00;0.00;;;;;;;;;;4938705;28;20688;-65
2020/12/04 09:29:30;;;;;;;0.00;0.00;;;;;;;;;;4938778;28;20644;-66
2020/12/04 09:31:55;;;;;;;0.00;0.00;;;;;;;;;;4939704;28;20058;-66
2020/12/04 09:34:21;;;;;;;0.00;0.00;;;;;;;;;;4940001;28;20756;-63
2020/12/04 09:36:51;;;;;;;0.00;0.00;;;;;;;;;;4938853;28;20122;-64
2020/12/04 09:39:19;;;;;;;0.00;0.00;;;;;;;;;;4940356;28;21050;-66
2020/12/04 09:41:47;;;;;;;0.28;0.28;;;;;;;;;;4940326;28;20035;-64
2020/12/04 09:44:15;;;;;;;0.38;0.38;;;;;;;;;;4938368;28;20027;-64
2020/12/04 09:46:40;;;;;;;0.30;0.30;;;;;;;;;;4941976;28;20719;-64
2020/12/04 09:49:08;;;;;;;0.00;0.00;;;;;;;;;;4938489;28;20033;-65
2020/12/04 09:51:38;;;;;;;0.00;0.00;;;;;;;;;;4938097;28;20206;-66
2020/12/04 09:54:04;;;;;;;0.00;0.00;;;;;;;;;;4939074;28;20039;-66
2020/12/04 09:56:32;;;;;;;0.00;0.00;;;;;;;;;;4923254;28;20408;-66
2020/12/04 09:59:03;;;;;;;1.25;1.00;;;;;;;;;;4939541;28;20039;-66
2020/12/04 10:01:31;;;;;;;0.00;0.00;;;;;;;;;;4925337;28;20259;-66
2020/12/04 10:03:58;;;;;;;0.00;0.00;;;;;;;;;;4941517;28;20046;-66
2020/12/04 10:06:26;;;;;;;0.52;0.52;;;;;;;;;;4938795;28;20039;-67
2020/12/04 10:08:54;;;;;;;0.00;0.00;;;;;;;;;;4935689;28;20066;-66
2020/12/04 10:11:20;;;;;;;0.15;0.15;;;;;;;;;;4938395;28;20038;-65
2020/12/04 10:13:47;;;;;;;0.00;0.00;;;;;;;;;;4937270;28;20074;-65
2020/12/04 10:16:13;;;;;;;0.20;0.20;;;;;;;;;;4937644;28;20489;-66
2020/12/04 10:18:39;;;;;;;0.00;0.00;;;;;;;;;;4939594;28;20070;-66
2020/12/04 10:21:05;;;;;;;0.40;0.40;;;;;;;;;;4939374;28;20897;-65
2020/12/04 10:23:33;;;;;;;0.00;0.00;;;;;;;;;;4940374;28;20027;-66
2020/12/04 10:25:59;;;;;;;0.00;0.00;;;;;;;;;;4939742;28;20538;-66
2020/12/04 10:28:24;;;;;;;0.00;0.00;;;;;;;;;;4938948;28;20039;-66
2020/12/04 10:30:52;;;;;;;0.00;0.00;;;;;;;;;;4938521;28;20442;-65
2020/12/04 10:33:20;;;;;;;0.10;0.10;;;;;;;;;;4941127;28;20066;-66
2020/12/04 10:35:49;;;;;;;0.00;0.00;;;;;;;;;;4938324;28;20031;-66
2020/12/04 10:38:14;;;;;;;0.25;0.25;;;;;;;;;;4935645;28;20062;-67
2020/12/04 10:40:39;;;;;;;0.10;0.10;;;;;;;;;;4939318;28;20066;-66
2020/12/04 10:43:10;;;;;;;0.00;0.00;;;;;;;;;;4939525;28;20035;-66
2020/12/04 10:45:38;;;;;;;0.28;0.28;;;;;;;;;;4939558;28;20458;-67
2020/12/04 10:48:04;;;;;;;0.00;0.00;;;;;;;;;;4939460;28;20035;-65
2020/12/04 10:50:34;;;;;;;0.00;0.00;;;;;;;;;;4927184;28;20038;-65
2020/12/04 10:53:02;;;;;;;0.10;0.10;;;;;;;;;;4927240;28;20078;-66
2020/12/04 10:55:30;;;;;;;0.43;0.43;;;;;;;;;;4954392;28;20043;-66
2020/12/04 10:58:00;;;;;;;0.10;0.10;;;;;;;;;;4940023;28;20051;-66
2020/12/04 11:00:25;;;;;;;0.00;0.00;;;;;;;;;;4941686;28;20039;-68
2020/12/04 11:03:01;;;;;;;0.00;0.00;;;;;;;;;;4939168;28;20078;-66
2020/12/04 11:05:35;;;;;;;0.00;0.00;;;;;;;;;;4938312;28;20046;-65
2020/12/04 11:08:08;;;;;;;0.13;0.13;;;;;;;;;;4939236;28;20047;-66
2020/12/04 11:10:38;;;;;;;0.00;0.00;;;;;;;;;;4938810;28;20129;-66
2020/12/04 11:13:03;;;;;;;0.00;0.00;;;;;;;;;;4936702;28;20471;-67
2020/12/04 11:15:30;;;;;;;2.00;0.47;;;;;;;;;;4935589;28;20031;-67
2020/12/04 11:17:56;;;;;;;0.00;0.00;;;;;;;;;;4939067;28;20183;-67
2020/12/04 11:20:23;;;;;;;0.00;0.00;;;;;;;;;;4938755;28;20034;-67
2020/12/04 11:22:49;;;;;;;0.00;0.00;;;;;;;;;;4938261;28;20038;-66
2020/12/04 11:25:17;;;;;;;0.25;0.25;;;;;;;;;;4943688;28;20583;-66
2020/12/04 11:27:49;;;;;;;0.13;0.13;;;;;;;;;;4938651;28;20520;-67
2020/12/04 11:30:18;;;;;;;0.00;0.00;;;;;;;;;;4938999;28;20727;-68
2020/12/04 11:32:48;;;;;;;0.00;0.00;;;;;;;;;;4938213;28;20275;-69
2020/12/04 11:35:14;;;;;;;0.00;0.00;;;;;;;;;;4937487;28;20023;-67
2020/12/04 11:37:43;;;;;;;0.08;0.08;;;;;;;;;;4938598;28;20105;-67
2020/12/04 11:40:10;;;;;;;0.00;0.00;;;;;;;;;;4938095;28;20580;-68
2020/12/04 11:42:38;;;;;;;0.00;0.00;;;;;;;;;;4938585;28;20085;-68
2020/12/04 11:45:04;;;;;;;0.00;0.00;;;;;;;;;;4937207;28;20035;-67
2020/12/04 11:47:29;;;;;;;0.00;0.00;;;;;;;;;;4935549;28;20034;-66
2020/12/04 11:49:58;;;;;;;0.10;0.10;;;;;;;;;;4936727;28;20210;-66
2020/12/04 11:52:23;;;;;;;0.00;0.00;;;;;;;;;;4952087;28;20046;-68
2020/12/04 11:54:49;;;;;;;0.00;0.00;;;;;;;;;;4936743;28;20049;-68
2020/12/04 11:57:15;;;;;;;0.00;0.00;;;;;;;;;;4934073;28;20186;-67
2020/12/04 11:59:42;;;;;;;0.00;0.00;;;;;;;;;;4939799;28;20417;-68
2020/12/04 12:02:10;;;;;;;0.00;0.00;;;;;;;;;;4936590;28;20088;-67
2020/12/04 12:04:38;;;;;;;0.00;0.00;;;;;;;;;;4944757;28;20086;-68
2020/12/04 12:07:06;;;;;;;0.00;0.00;;;;;;;;;;4936757;28;20038;-67
2020/12/04 12:09:34;;;;;;;0.00;0.00;;;;;;;;;;4938313;28;20027;-66
2020/12/04 12:12:02;;;;;;;0.20;0.20;;;;;;;;;;4938485;28;20655;-68
2020/12/04 12:14:28;;;;;;;0.00;0.00;;;;;;;;;;4924731;28;20031;-67
2020/12/04 12:16:54;;;;;;;0.25;0.25;;;;;;;;;;4936233;28;20046;-65
2020/12/04 12:19:20;;;;;;;0.10;0.10;;;;;;;;;;4937272;28;20035;-68
2020/12/04 12:21:47;;;;;;;0.00;0.00;;;;;;;;;;4935022;28;20038;-69
2020/12/04 12:24:15;;;;;;;0.00;0.00;;;;;;;;;;4936509;28;20035;-68
2020/12/04 12:26:41;;;;;;;0.00;0.00;;;;;;;;;;4935550;28;20032;-68
2020/12/04 12:29:11;;;;;;;0.00;0.00;;;;;;;;;;4938736;28;20042;-68
2020/12/04 12:31:40;;;;;;;0.00;0.00;;;;;;;;;;4937195;28;21673;-68
2020/12/04 12:34:05;;;;;;;0.00;0.00;;;;;;;;;;4936776;28;20167;-67
2020/12/04 12:36:36;;;;;;;0.00;0.00;;;;;;;;;;4937914;28;20379;-68
2020/12/04 12:39:03;;;;;;;0.00;0.00;;;;;;;;;;4938118;28;20069;-67
2020/12/04 12:41:30;;;;;;;0.00;0.00;;;;;;;;;;4941895;28;20129;-67
2020/12/04 12:43:58;;;;;;;0.05;0.05;;;;;;;;;;4952821;28;20043;-69
2020/12/04 12:46:24;;;;;;;0.00;0.00;;;;;;;;;;4935144;28;20042;-67
2020/12/04 12:48:53;;;;;;;0.00;0.00;;;;;;;;;;4938291;28;20406;-67
2020/12/04 12:51:23;;;;;;;0.00;0.00;;;;;;;;;;4924223;28;20031;-69
2020/12/04 12:53:54;;;;;;;0.00;0.00;;;;;;;;;;4951323;28;20042;-68
2020/12/04 12:56:19;;;;;;;0.00;0.00;;;;;;;;;;4935230;28;20043;-66
2020/12/04 12:58:49;;;;;;;2.10;0.98;;;;;;;;;;4926187;28;20174;-69
2020/12/04 13:01:22;;;;;;;0.00;0.00;;;;;;;;;;4936792;28;20114;-68
2020/12/04 13:03:48;;;;;;;0.00;0.00;;;;;;;;;;4921029;28;20051;-68
2020/12/04 13:06:16;;;;;;;0.00;0.00;;;;;;;;;;4938044;28;20166;-67
2020/12/04 13:08:41;;;;;;;0.00;0.00;;;;;;;;;;4926338;28;20620;-68
2020/12/04 13:11:09;;;;;;;0.00;0.00;;;;;;;;;;4936913;28;20035;-69
2020/12/04 13:13:34;;;;;;;0.00;0.00;;;;;;;;;;4935338;28;20022;-68
2020/12/04 13:16:00;;;;;;;0.00;0.00;;;;;;;;;;4936515;28;20034;-68
2020/12/04 13:18:28;;;;;;;0.00;0.00;;;;;;;;;;4936023;28;20127;-68
2020/12/04 13:20:58;;;;;;;0.00;0.00;;;;;;;;;;4937278;28;20629;-66
2020/12/04 13:23:26;;;;;;;0.03;0.03;;;;;;;;;;4937583;28;20037;-66
2020/12/04 13:25:53;;;;;;;0.00;0.00;;;;;;;;;;4937874;28;20035;-68
2020/12/04 13:28:21;;;;;;;9.23;1.20;;;;;;;;;;4938797;28;20035;-69
2020/12/04 13:30:49;;;;;;;0.00;0.00;;;;;;;;;;4932144;28;20059;-68
2020/12/04 13:33:15;;;;;;;0.00;0.00;;;;;;;;;;4939154;28;20423;-68
2020/12/04 13:35:40;;;;;;;0.00;0.00;;;;;;;;;;4944827;28;20222;-68
2020/12/04 13:38:08;;;;;;;0.00;0.00;;;;;;;;;;4939717;28;20050;-68
2020/12/04 13:40:34;;;;;;;0.00;0.00;;;;;;;;;;4940572;28;20509;-68
2020/12/04 13:43:03;;;;;;;0.00;0.00;;;;;;;;;;4929768;28;20047;-69
2020/12/04 13:45:31;;;;;;;0.00;0.00;;;;;;;;;;4938139;28;20385;-68
2020/12/04 13:48:00;;;;;;;0.00;0.00;;;;;;;;;;4941492;28;20058;-70
2020/12/04 13:50:27;;;;;;;0.00;0.00;;;;;;;;;;4939065;28;20503;-69
2020/12/04 13:52:53;;;;;;;0.08;0.08;;;;;;;;;;4939967;28;20506;-69
2020/12/04 13:55:19;;;;;;;0.00;0.00;;;;;;;;;;4939615;28;20031;-70
2020/12/04 13:57:46;;;;;;;0.00;0.00;;;;;;;;;;4955696;28;20027;-69
2020/12/04 14:00:14;;;;;;;0.00;0.00;;;;;;;;;;4939919;28;20034;-69
2020/12/04 14:02:40;;;;;;;0.00;0.00;;;;;;;;;;4940199;28;20055;-70
2020/12/04 14:05:09;;;;;;;0.00;0.00;;;;;;;;;;4939469;28;20538;-69
2020/12/04 14:07:35;;;;;;;0.00;0.00;;;;;;;;;;4940397;28;20714;-68
2020/12/04 14:10:18;;;;;;;0.00;0.00;;;;;;;;;;4940850;28;20558;-69
2020/12/04 14:12:43;;;;;;;0.00;0.00;;;;;;;;;;4939322;28;20023;-70
2020/12/04 14:15:09;;;;;;;0.00;0.00;;;;;;;;;;4939337;28;20557;-70
2020/12/04 14:17:34;;;;;;;0.00;0.00;;;;;;;;;;4938813;28;20117;-67
2020/12/04 14:19:59;;;;;;;0.00;0.00;;;;;;;;;;4939491;28;20035;-68
2020/12/04 14:22:30;;;;;;;0.00;0.00;;;;;;;;;;4938169;28;20752;-68
2020/12/04 14:24:56;;;;;;;0.00;0.00;;;;;;;;;;4941150;28;20074;-68
2020/12/04 14:27:24;;;;;;;0.00;0.00;;;;;;;;;;4923116;28;20087;-68
2020/12/04 14:29:51;;;;;;;0.00;0.00;;;;;;;;;;4940192;28;20082;-69
2020/12/04 14:32:17;;;;;;;0.00;0.00;;;;;;;;;;4936241;28;20515;-69
2020/12/04 14:34:45;;;;;;;0.00;0.00;;;;;;;;;;4939608;28;20066;-67
2020/12/04 14:37:11;;;;;;;0.00;0.00;;;;;;;;;;4934093;28;20439;-68
2020/12/04 14:39:36;;;;;;;0.00;0.00;;;;;;;;;;4941106;28;20126;-67
2020/12/04 14:42:02;;;;;;;0.00;0.00;;;;;;;;;;4937757;28;20033;-67
2020/12/04 14:44:28;;;;;;;0.00;0.00;;;;;;;;;;4895942;28;20215;-67
2020/12/04 14:46:56;;;;;;;0.00;0.00;;;;;;;;;;4935380;28;20046;-69
2020/12/04 14:49:21;;;;;;;0.00;0.00;;;;;;;;;;4937202;28;20125;-67
2020/12/04 14:51:50;;;;;;;0.00;0.00;;;;;;;;;;4938310;28;20153;-67
2020/12/04 14:54:15;;;;;;;0.00;0.00;;;;;;;;;;4939069;28;20181;-68